sensor_id;sensor_type;location;lat;lon;timestamp;pressure;altitude;pressure_sealevel;temperature;humidity
63194;BME280;49289;51.670;5.624;2023-12-22T00:00:11;100462.70;;;8.60;100.00
63194;BME280;49289;51.670;5.624;2023-12-22T00:01:59;100447.05;;;8.90;100.00
63194;BME280;49289;51.670;5.624;2023-12-22T00:03:46;100469.78;;;8.98;100.00
63194;BME280;49289;51.670;5.624;2023-12-22T00:05:34;100475.94;;;8.84;100.00
63194;BME280;49289;51.670;5.624;2023-12-22T00:07:21;100475.86;;;8.88;100.00
63194;BME280;49289;51.670;5.624;2023-12-22T00:09:08;100486.45;;;9.19;100.00
63194;BME280;49289;51.670;5.624;2023-12-22T00:10:55;100481.88;;;9.03;100.00
63194;BME280;49289;51.670;5.624;2023-12-22T00:12:43;100458.93;;;8.94;100.00
63194;BME280;49289;51.670;5.624;2023-12-22T00:14:30;100481.44;;;9.52;100.00
63194;BME280;49289;51.670;5.624;2023-12-22T00:16:18;100472.33;;;9.18;100.00
63194;BME280;49289;51.670;5.624;2023-12-22T00:18:05;100471.42;;;9.43;100.00
63194;BME280;49289;51.670;5.624;2023-12-22T00:19:51;100473.61;;;9.19;100.00
63194;BME280;49289;51.670;5.624;2023-12-22T00:21:39;100484.20;;;9.64;100.00
63194;BME280;49289;51.670;5.624;2023-12-22T00:23:30;100477.08;;;9.29;100.00
63194;BME280;49289;51.670;5.624;2023-12-22T00:25:21;100480.67;;;9.62;100.00
63194;BME280;49289;51.670;5.624;2023-12-22T00:26:56;100453.13;;;9.89;98.72
63194;BME280;49289;51.670;5.624;2023-12-22T00:28:43;100488.14;;;9.66;98.27
63194;BME280;49289;51.670;5.624;2023-12-22T00:30:30;100487.84;;;9.39;99.30
63194;BME280;49289;51.670;5.624;2023-12-22T00:32:18;100488.25;;;9.67;98.96
63194;BME280;49289;51.670;5.624;2023-12-22T00:34:05;100486.44;;;9.36;100.00
63194;BME280;49289;51.670;5.624;2023-12-22T00:35:52;100476.42;;;9.29;100.00
63194;BME280;49289;51.670;5.624;2023-12-22T00:37:39;100475.39;;;9.06;100.00
63194;BME280;49289;51.670;5.624;2023-12-22T00:39:26;100482.83;;;9.04;100.00
63194;BME280;49289;51.670;5.624;2023-12-22T00:41:12;100507.57;;;9.24;100.00
63194;BME280;49289;51.670;5.624;2023-12-22T00:42:59;100478.85;;;8.97;100.00
63194;BME280;49289;51.670;5.624;2023-12-22T00:44:47;100508.84;;;9.34;100.00
63194;BME280;49289;51.670;5.624;2023-12-22T00:46:34;100525.02;;;9.27;100.00
63194;BME280;49289;51.670;5.624;2023-12-22T00:48:21;100504.77;;;9.10;100.00
63194;BME280;49289;51.670;5.624;2023-12-22T00:50:08;100514.39;;;9.39;100.00
63194;BME280;49289;51.670;5.624;2023-12-22T00:51:55;100522.07;;;9.00;100.00
63194;BME280;49289;51.670;5.624;2023-12-22T00:53:42;100507.03;;;8.92;100.00
63194;BME280;49289;51.670;5.624;2023-12-22T00:55:29;100481.86;;;9.42;100.00
63194;BME280;49289;51.670;5.624;2023-12-22T00:57:16;100454.68;;;9.01;100.00
63194;BME280;49289;51.670;5.624;2023-12-22T00:59:03;100474.70;;;9.01;100.00
63194;BME280;49289;51.670;5.624;2023-12-22T01:00:50;100480.70;;;9.22;100.00
63194;BME280;49289;51.670;5.624;2023-12-22T01:02:37;100488.86;;;9.23;100.00
63194;BME280;49289;51.670;5.624;2023-12-22T01:04:24;100500.73;;;9.77;100.00
63194;BME280;49289;51.670;5.624;2023-12-22T01:06:11;100497.98;;;9.48;100.00
63194;BME280;49289;51.670;5.624;2023-12-22T01:07:58;100504.53;;;9.55;99.99
63194;BME280;49289;51.670;5.624;2023-12-22T01:09:45;100474.97;;;9.01;100.00
63194;BME280;49289;51.670;5.624;2023-12-22T01:11:32;100492.91;;;9.30;100.00
63194;BME280;49289;51.670;5.624;2023-12-22T01:13:19;100492.56;;;9.75;100.00
63194;BME280;49289;51.670;5.624;2023-12-22T01:15:05;100491.23;;;9.45;100.00
63194;BME280;49289;51.670;5.624;2023-12-22T01:16:52;100476.86;;;9.04;100.00
63194;BME280;49289;51.670;5.624;2023-12-22T01:18:40;100498.69;;;9.29;100.00
63194;BME280;49289;51.670;5.624;2023-12-22T01:20:27;100487.25;;;9.30;100.00
63194;BME280;49289;51.670;5.624;2023-12-22T01:22:14;100457.97;;;9.03;100.00
63194;BME280;49289;51.670;5.624;2023-12-22T01:24:00;100496.42;;;9.34;100.00
63194;BME280;49289;51.670;5.624;2023-12-22T01:25:48;100501.77;;;9.67;100.00
63194;BME280;49289;51.670;5.624;2023-12-22T01:27:35;100512.14;;;9.54;100.00
63194;BME280;49289;51.670;5.624;2023-12-22T01:29:22;100519.66;;;9.20;100.00
63194;BME280;49289;51.670;5.624;2023-12-22T01:31:09;100520.02;;;9.69;100.00
63194;BME280;49289;51.670;5.624;2023-12-22T01:32:55;100524.95;;;9.57;99.99
63194;BME280;49289;51.670;5.624;2023-12-22T01:34:42;100532.10;;;9.52;100.00
63194;BME280;49289;51.670;5.624;2023-12-22T01:36:29;100493.20;;;8.88;100.00
63194;BME280;49289;51.670;5.624;2023-12-22T01:38:16;100518.34;;;9.34;99.97
63194;BME280;49289;51.670;5.624;2023-12-22T01:40:03;100494.31;;;9.22;100.00
63194;BME280;49289;51.670;5.624;2023-12-22T01:41:50;100515.98;;;9.12;99.96
63194;BME280;49289;51.670;5.624;2023-12-22T01:43:37;100512.81;;;9.63;98.06
63194;BME280;49289;51.670;5.624;2023-12-22T01:45:24;100506.03;;;10.12;96.01
63194;BME280;49289;51.670;5.624;2023-12-22T01:47:11;100490.03;;;9.10;95.36
63194;BME280;49289;51.670;5.624;2023-12-22T01:48:58;100508.64;;;9.35;95.87
63194;BME280;49289;51.670;5.624;2023-12-22T01:50:45;100508.88;;;9.73;95.11
63194;BME280;49289;51.670;5.624;2023-12-22T01:52:32;100515.52;;;10.04;93.72
63194;BME280;49289;51.670;5.624;2023-12-22T01:54:19;100512.97;;;9.67;93.25
63194;BME280;49289;51.670;5.624;2023-12-22T01:56:06;100516.00;;;9.89;92.70
63194;BME280;49289;51.670;5.624;2023-12-22T01:57:53;100513.72;;;9.75;90.87
63194;BME280;49289;51.670;5.624;2023-12-22T01:59:40;100421.55;;;8.95;89.29
63194;BME280;49289;51.670;5.624;2023-12-22T02:01:27;100524.77;;;9.90;88.23
63194;BME280;49289;51.670;5.624;2023-12-22T02:03:14;100525.37;;;10.07;85.70
63194;BME280;49289;51.670;5.624;2023-12-22T02:05:01;100524.70;;;10.11;85.21
63194;BME280;49289;51.670;5.624;2023-12-22T02:06:47;100519.55;;;10.09;84.28
63194;BME280;49289;51.670;5.624;2023-12-22T02:08:34;100516.09;;;10.09;82.64
63194;BME280;49289;51.670;5.624;2023-12-22T02:10:21;100512.95;;;10.29;81.35
63194;BME280;49289;51.670;5.624;2023-12-22T02:12:09;100518.05;;;9.94;81.28
63194;BME280;49289;51.670;5.624;2023-12-22T02:13:56;100515.25;;;10.31;80.82
63194;BME280;49289;51.670;5.624;2023-12-22T02:15:45;100525.54;;;10.07;79.16
63194;BME280;49289;51.670;5.624;2023-12-22T02:17:35;100503.97;;;9.86;79.41
63194;BME280;49289;51.670;5.624;2023-12-22T02:19:33;100532.29;;;10.51;79.89
63194;BME280;49289;51.670;5.624;2023-12-22T02:21:11;100530.31;;;9.91;79.83
63194;BME280;49289;51.670;5.624;2023-12-22T02:22:58;100534.49;;;9.84;80.65
63194;BME280;49289;51.670;5.624;2023-12-22T02:24:45;100534.17;;;9.89;80.49
63194;BME280;49289;51.670;5.624;2023-12-22T02:26:34;100506.42;;;9.59;80.24
63194;BME280;49289;51.670;5.624;2023-12-22T02:28:20;100532.92;;;10.16;79.52
63194;BME280;49289;51.670;5.624;2023-12-22T02:30:08;100533.00;;;9.99;79.03
63194;BME280;49289;51.670;5.624;2023-12-22T02:31:43;100510.27;;;10.81;77.93
63194;BME280;49289;51.670;5.624;2023-12-22T02:33:31;100537.42;;;10.37;77.57
63194;BME280;49289;51.670;5.624;2023-12-22T02:35:19;100531.73;;;10.02;78.09
63194;BME280;49289;51.670;5.624;2023-12-22T02:37:04;100495.42;;;10.04;77.15
63194;BME280;49289;51.670;5.624;2023-12-22T02:38:51;100520.52;;;10.11;76.48
63194;BME280;49289;51.670;5.624;2023-12-22T02:40:38;100471.41;;;9.83;76.92
63194;BME280;49289;51.670;5.624;2023-12-22T02:42:25;100509.98;;;10.49;76.58
63194;BME280;49289;51.670;5.624;2023-12-22T02:44:12;100492.06;;;10.34;76.21
63194;BME280;49289;51.670;5.624;2023-12-22T02:46:02;100495.58;;;10.17;76.09
63194;BME280;49289;51.670;5.624;2023-12-22T02:47:49;100475.38;;;10.07;76.72
63194;BME280;49289;51.670;5.624;2023-12-22T02:49:36;100495.67;;;10.48;76.53
63194;BME280;49289;51.670;5.624;2023-12-22T02:51:23;100458.83;;;10.10;75.24
63194;BME280;49289;51.670;5.624;2023-12-22T02:53:10;100488.03;;;10.36;75.34
63194;BME280;49289;51.670;5.624;2023-12-22T02:54:57;100491.36;;;10.42;74.11
63194;BME280;49289;51.670;5.624;2023-12-22T02:56:45;100479.09;;;10.32;73.87
63194;BME280;49289;51.670;5.624;2023-12-22T02:58:31;100488.92;;;10.19;74.51
63194;BME280;49289;51.670;5.624;2023-12-22T03:00:19;100490.19;;;10.28;74.02
63194;BME280;49289;51.670;5.624;2023-12-22T03:02:06;100493.61;;;10.17;73.92
63194;BME280;49289;51.670;5.624;2023-12-22T03:03:53;100497.23;;;10.18;73.96
63194;BME280;49289;51.670;5.624;2023-12-22T03:05:40;100495.25;;;10.47;74.02
63194;BME280;49289;51.670;5.624;2023-12-22T03:07:27;100490.09;;;10.60;73.93
63194;BME280;49289;51.670;5.624;2023-12-22T03:09:14;100447.59;;;10.12;74.31
63194;BME280;49289;51.670;5.624;2023-12-22T03:11:01;100466.43;;;10.40;75.54
63194;BME280;49289;51.670;5.624;2023-12-22T03:12:48;100461.83;;;10.38;74.88
63194;BME280;49289;51.670;5.624;2023-12-22T03:14:35;100485.06;;;10.41;75.46
63194;BME280;49289;51.670;5.624;2023-12-22T03:16:22;100486.70;;;10.59;74.90
63194;BME280;49289;51.670;5.624;2023-12-22T03:18:09;100489.62;;;10.79;73.79
63194;BME280;49289;51.670;5.624;2023-12-22T03:19:56;100491.31;;;10.78;73.96
63194;BME280;49289;51.670;5.624;2023-12-22T03:21:43;100493.97;;;10.71;73.59
63194;BME280;49289;51.670;5.624;2023-12-22T03:23:30;100486.62;;;10.39;74.40
63194;BME280;49289;51.670;5.624;2023-12-22T03:25:18;100502.50;;;10.14;75.93
63194;BME280;49289;51.670;5.624;2023-12-22T03:27:05;100484.03;;;10.28;76.59
63194;BME280;49289;51.670;5.624;2023-12-22T03:28:52;100515.92;;;10.32;77.03
63194;BME280;49289;51.670;5.624;2023-12-22T03:30:39;100483.21;;;10.61;76.63
63194;BME280;49289;51.670;5.624;2023-12-22T03:32:26;100505.77;;;10.61;76.90
63194;BME280;49289;51.670;5.624;2023-12-22T03:34:13;100509.98;;;10.62;77.31
63194;BME280;49289;51.670;5.624;2023-12-22T03:36:00;100511.61;;;10.76;77.61
63194;BME280;49289;51.670;5.624;2023-12-22T03:37:47;100484.45;;;10.48;78.91
63194;BME280;49289;51.670;5.624;2023-12-22T03:39:34;100520.69;;;10.59;79.08
63194;BME280;49289;51.670;5.624;2023-12-22T03:41:21;100505.08;;;10.31;80.41
63194;BME280;49289;51.670;5.624;2023-12-22T03:43:10;100521.38;;;11.06;78.99
63194;BME280;49289;51.670;5.624;2023-12-22T03:44:57;100511.69;;;11.06;78.64
63194;BME280;49289;51.670;5.624;2023-12-22T03:46:44;100509.67;;;10.91;78.93
63194;BME280;49289;51.670;5.624;2023-12-22T03:48:31;100489.41;;;10.81;78.49
63194;BME280;49289;51.670;5.624;2023-12-22T03:50:19;100504.23;;;10.90;77.81
63194;BME280;49289;51.670;5.624;2023-12-22T03:52:06;100499.38;;;10.55;79.55
63194;BME280;49289;51.670;5.624;2023-12-22T03:53:53;100512.52;;;10.81;79.15
63194;BME280;49289;51.670;5.624;2023-12-22T03:55:40;100510.49;;;10.70;78.20
63194;BME280;49289;51.670;5.624;2023-12-22T03:57:27;100508.03;;;11.30;77.48
63194;BME280;49289;51.670;5.624;2023-12-22T03:59:14;100494.78;;;10.50;77.22
63194;BME280;49289;51.670;5.624;2023-12-22T04:01:01;100524.02;;;10.88;77.98
63194;BME280;49289;51.670;5.624;2023-12-22T04:02:48;100518.23;;;10.91;77.19
63194;BME280;49289;51.670;5.624;2023-12-22T04:04:35;100522.30;;;10.95;77.37
63194;BME280;49289;51.670;5.624;2023-12-22T04:06:22;100530.12;;;11.18;76.29
63194;BME280;49289;51.670;5.624;2023-12-22T04:08:10;100525.16;;;11.33;73.88
63194;BME280;49289;51.670;5.624;2023-12-22T04:09:57;100530.16;;;10.62;75.55
63194;BME280;49289;51.670;5.624;2023-12-22T04:11:44;100528.61;;;11.02;75.30
63194;BME280;49289;51.670;5.624;2023-12-22T04:13:31;100526.95;;;10.95;75.16
63194;BME280;49289;51.670;5.624;2023-12-22T04:15:19;100506.32;;;10.77;74.27
63194;BME280;49289;51.670;5.624;2023-12-22T04:17:06;100527.45;;;10.87;74.85
63194;BME280;49289;51.670;5.624;2023-12-22T04:18:53;100536.53;;;10.96;74.96
63194;BME280;49289;51.670;5.624;2023-12-22T04:20:40;100509.61;;;10.99;73.83
63194;BME280;49289;51.670;5.624;2023-12-22T04:22:27;100528.67;;;10.92;74.21
63194;BME280;49289;51.670;5.624;2023-12-22T04:24:13;100540.09;;;10.83;73.21
63194;BME280;49289;51.670;5.624;2023-12-22T04:26:00;100533.06;;;10.72;72.30
63194;BME280;49289;51.670;5.624;2023-12-22T04:27:47;100544.37;;;10.74;72.11
63194;BME280;49289;51.670;5.624;2023-12-22T04:29:35;100528.18;;;10.78;71.31
63194;BME280;49289;51.670;5.624;2023-12-22T04:31:22;100529.41;;;11.19;71.22
63194;BME280;49289;51.670;5.624;2023-12-22T04:33:09;100521.45;;;11.00;70.52
63194;BME280;49289;51.670;5.624;2023-12-22T04:34:56;100537.11;;;11.52;68.59
63194;BME280;49289;51.670;5.624;2023-12-22T04:36:43;100535.20;;;10.96;69.21
63194;BME280;49289;51.670;5.624;2023-12-22T04:38:30;100553.13;;;10.99;68.59
63194;BME280;49289;51.670;5.624;2023-12-22T04:40:18;100558.07;;;11.04;68.86
63194;BME280;49289;51.670;5.624;2023-12-22T04:42:05;100535.98;;;11.68;67.61
63194;BME280;49289;51.670;5.624;2023-12-22T04:43:51;100533.88;;;10.72;68.26
63194;BME280;49289;51.670;5.624;2023-12-22T04:45:38;100533.55;;;11.20;67.93
63194;BME280;49289;51.670;5.624;2023-12-22T04:47:26;100555.69;;;11.60;67.52
63194;BME280;49289;51.670;5.624;2023-12-22T04:49:13;100526.62;;;10.97;67.33
63194;BME280;49289;51.670;5.624;2023-12-22T04:51:00;100529.58;;;11.13;67.22
63194;BME280;49289;51.670;5.624;2023-12-22T04:52:47;100547.33;;;11.33;66.70
63194;BME280;49289;51.670;5.624;2023-12-22T04:54:33;100546.00;;;10.97;66.79
63194;BME280;49289;51.670;5.624;2023-12-22T04:56:23;100550.67;;;12.02;67.11
63194;BME280;49289;51.670;5.624;2023-12-22T04:58:09;100555.52;;;11.06;67.43
63194;BME280;49289;51.670;5.624;2023-12-22T04:59:56;100561.30;;;11.04;67.24
63194;BME280;49289;51.670;5.624;2023-12-22T05:01:44;100567.96;;;11.17;67.66
63194;BME280;49289;51.670;5.624;2023-12-22T05:03:31;100572.99;;;11.24;67.05
63194;BME280;49289;51.670;5.624;2023-12-22T05:05:18;100538.53;;;10.90;67.19
63194;BME280;49289;51.670;5.624;2023-12-22T05:07:05;100543.91;;;11.29;67.49
63194;BME280;49289;51.670;5.624;2023-12-22T05:08:53;100546.88;;;11.24;67.03
63194;BME280;49289;51.670;5.624;2023-12-22T05:10:39;100560.77;;;11.16;67.53
63194;BME280;49289;51.670;5.624;2023-12-22T05:12:26;100558.17;;;11.36;67.43
63194;BME280;49289;51.670;5.624;2023-12-22T05:14:13;100564.02;;;11.17;68.23
63194;BME280;49289;51.670;5.624;2023-12-22T05:16:00;100567.45;;;11.23;68.33
63194;BME280;49289;51.670;5.624;2023-12-22T05:17:47;100567.80;;;11.34;68.03
63194;BME280;49289;51.670;5.624;2023-12-22T05:19:34;100572.52;;;11.49;68.72
63194;BME280;49289;51.670;5.624;2023-12-22T05:21:24;100571.73;;;11.28;68.19
63194;BME280;49289;51.670;5.624;2023-12-22T05:23:11;100549.50;;;11.29;67.79
63194;BME280;49289;51.670;5.624;2023-12-22T05:24:58;100555.23;;;11.66;67.17
63194;BME280;49289;51.670;5.624;2023-12-22T05:26:45;100576.88;;;11.91;67.52
63194;BME280;49289;51.670;5.624;2023-12-22T05:28:32;100576.64;;;11.64;68.04
63194;BME280;49289;51.670;5.624;2023-12-22T05:30:20;100573.00;;;11.56;67.52
63194;BME280;49289;51.670;5.624;2023-12-22T05:32:06;100545.64;;;11.27;69.53
63194;BME280;49289;51.670;5.624;2023-12-22T05:33:53;100565.80;;;11.40;69.77
63194;BME280;49289;51.670;5.624;2023-12-22T05:35:40;100564.70;;;11.54;70.75
63194;BME280;49289;51.670;5.624;2023-12-22T05:37:27;100556.28;;;11.41;70.74
63194;BME280;49289;51.670;5.624;2023-12-22T05:39:14;100539.89;;;11.59;69.82
63194;BME280;49289;51.670;5.624;2023-12-22T05:41:01;100527.68;;;11.13;70.62
63194;BME280;49289;51.670;5.624;2023-12-22T05:42:48;100524.83;;;11.51;70.83
63194;BME280;49289;51.670;5.624;2023-12-22T05:44:35;100551.08;;;11.49;70.88
63194;BME280;49289;51.670;5.624;2023-12-22T05:46:22;100559.78;;;11.41;72.24
63194;BME280;49289;51.670;5.624;2023-12-22T05:48:10;100553.18;;;11.26;73.02
63194;BME280;49289;51.670;5.624;2023-12-22T05:49:57;100546.55;;;11.84;72.97
63194;BME280;49289;51.670;5.624;2023-12-22T05:51:48;100529.30;;;10.77;77.28
63194;BME280;49289;51.670;5.624;2023-12-22T05:53:35;100540.88;;;10.82;84.20
63194;BME280;49289;51.670;5.624;2023-12-22T05:55:22;100537.16;;;10.45;85.97
63194;BME280;49289;51.670;5.624;2023-12-22T05:57:09;100556.39;;;10.48;87.57
63194;BME280;49289;51.670;5.624;2023-12-22T05:58:56;100533.18;;;10.66;87.98
63194;BME280;49289;51.670;5.624;2023-12-22T06:00:43;100565.20;;;10.85;87.96
63194;BME280;49289;51.670;5.624;2023-12-22T06:02:30;100555.37;;;11.00;87.55
63194;BME280;49289;51.670;5.624;2023-12-22T06:04:18;100536.17;;;11.12;86.41
63194;BME280;49289;51.670;5.624;2023-12-22T06:06:05;100556.20;;;11.42;86.92
63194;BME280;49289;51.670;5.624;2023-12-22T06:07:52;100557.33;;;11.21;87.81
63194;BME280;49289;51.670;5.624;2023-12-22T06:09:39;100528.81;;;11.47;86.70
63194;BME280;49289;51.670;5.624;2023-12-22T06:11:26;100547.29;;;11.72;85.63
63194;BME280;49289;51.670;5.624;2023-12-22T06:13:13;100548.09;;;11.99;84.71
63194;BME280;49289;51.670;5.624;2023-12-22T06:15:00;100549.30;;;11.04;88.70
63194;BME280;49289;51.670;5.624;2023-12-22T06:16:47;100527.50;;;11.22;86.98
63194;BME280;49289;51.670;5.624;2023-12-22T06:18:34;100543.80;;;11.31;88.97
63194;BME280;49289;51.670;5.624;2023-12-22T06:20:22;100548.98;;;11.09;89.55
63194;BME280;49289;51.670;5.624;2023-12-22T06:22:09;100551.58;;;11.30;89.72
63194;BME280;49289;51.670;5.624;2023-12-22T06:23:56;100538.34;;;11.42;88.76
63194;BME280;49289;51.670;5.624;2023-12-22T06:25:42;100518.36;;;11.24;89.31
63194;BME280;49289;51.670;5.624;2023-12-22T06:27:29;100550.48;;;11.15;90.90
63194;BME280;49289;51.670;5.624;2023-12-22T06:29:17;100559.72;;;11.45;91.22
63194;BME280;49289;51.670;5.624;2023-12-22T06:31:04;100525.28;;;10.70;97.51
63194;BME280;49289;51.670;5.624;2023-12-22T06:32:51;100530.41;;;11.28;100.00
63194;BME280;49289;51.670;5.624;2023-12-22T06:34:38;100562.52;;;11.14;100.00
63194;BME280;49289;51.670;5.624;2023-12-22T06:36:30;100565.56;;;10.57;100.00
63194;BME280;49289;51.670;5.624;2023-12-22T06:38:17;100577.59;;;10.83;100.00
63194;BME280;49289;51.670;5.624;2023-12-22T06:40:04;100579.95;;;10.51;100.00
63194;BME280;49289;51.670;5.624;2023-12-22T06:41:38;100590.79;;;10.51;100.00
63194;BME280;49289;51.670;5.624;2023-12-22T06:43:25;100578.53;;;10.68;100.00
63194;BME280;49289;51.670;5.624;2023-12-22T06:45:13;100592.30;;;11.18;100.00
63194;BME280;49289;51.670;5.624;2023-12-22T06:47:00;100587.59;;;11.07;100.00
63194;BME280;49289;51.670;5.624;2023-12-22T06:48:47;100585.72;;;10.64;100.00
63194;BME280;49289;51.670;5.624;2023-12-22T06:50:20;100547.22;;;10.60;100.00
63194;BME280;49289;51.670;5.624;2023-12-22T06:52:08;100547.86;;;10.55;100.00
63194;BME280;49289;51.670;5.624;2023-12-22T06:53:55;100537.56;;;10.72;100.00
63194;BME280;49289;51.670;5.624;2023-12-22T06:55:42;100540.31;;;10.66;100.00
63194;BME280;49289;51.670;5.624;2023-12-22T06:57:29;100561.41;;;11.29;100.00
63194;BME280;49289;51.670;5.624;2023-12-22T06:59:16;100568.71;;;10.87;100.00
63194;BME280;49289;51.670;5.624;2023-12-22T07:01:03;100568.39;;;10.62;100.00
63194;BME280;49289;51.670;5.624;2023-12-22T07:02:50;100540.53;;;10.79;100.00
63194;BME280;49289;51.670;5.624;2023-12-22T07:06:52;100556.77;;;11.42;99.66
63194;BME280;49289;51.670;5.624;2023-12-22T07:08:39;100553.55;;;11.13;100.00
63194;BME280;49289;51.670;5.624;2023-12-22T07:10:26;100556.95;;;11.01;100.00
63194;BME280;49289;51.670;5.624;2023-12-22T07:12:13;100528.34;;;10.50;100.00
63194;BME280;49289;51.670;5.624;2023-12-22T07:14:00;100541.80;;;10.64;100.00
63194;BME280;49289;51.670;5.624;2023-12-22T07:15:47;100553.02;;;10.55;100.00
63194;BME280;49289;51.670;5.624;2023-12-22T07:17:34;100529.42;;;10.71;100.00
63194;BME280;49289;51.670;5.624;2023-12-22T07:19:26;100555.59;;;11.44;100.00
63194;BME280;49289;51.670;5.624;2023-12-22T07:21:15;100526.27;;;11.20;100.00
63194;BME280;49289;51.670;5.624;2023-12-22T07:23:00;100556.41;;;11.16;100.00
63194;BME280;49289;51.670;5.624;2023-12-22T07:24:47;100553.16;;;11.36;100.00
63194;BME280;49289;51.670;5.624;2023-12-22T07:26:33;100544.11;;;11.18;100.00
63194;BME280;49289;51.670;5.624;2023-12-22T07:28:20;100530.55;;;11.32;100.00
63194;BME280;49289;51.670;5.624;2023-12-22T07:30:08;100552.23;;;11.37;100.00
63194;BME280;49289;51.670;5.624;2023-12-22T07:31:55;100526.83;;;10.96;100.00
63194;BME280;49289;51.670;5.624;2023-12-22T07:33:42;100527.04;;;10.83;100.00
63194;BME280;49289;51.670;5.624;2023-12-22T07:35:18;100536.57;;;11.36;100.00
63194;BME280;49289;51.670;5.624;2023-12-22T07:37:05;100560.10;;;11.15;100.00
63194;BME280;49289;51.670;5.624;2023-12-22T07:38:52;100561.36;;;11.35;99.38
63194;BME280;49289;51.670;5.624;2023-12-22T07:40:38;100531.66;;;10.90;100.00
63194;BME280;49289;51.670;5.624;2023-12-22T07:42:26;100560.33;;;11.85;98.21
63194;BME280;49289;51.670;5.624;2023-12-22T07:44:13;100558.36;;;11.83;95.76
63194;BME280;49289;51.670;5.624;2023-12-22T07:46:01;100526.87;;;11.25;95.81
63194;BME280;49289;51.670;5.624;2023-12-22T07:47:49;100531.56;;;11.19;97.13
63194;BME280;49289;51.670;5.624;2023-12-22T07:49:35;100557.23;;;11.22;97.18
63194;BME280;49289;51.670;5.624;2023-12-22T07:51:22;100549.67;;;11.77;95.97
63194;BME280;49289;51.670;5.624;2023-12-22T07:53:09;100523.59;;;11.33;95.93
63194;BME280;49289;51.670;5.624;2023-12-22T07:54:56;100526.69;;;11.38;95.36
63194;BME280;49289;51.670;5.624;2023-12-22T07:56:44;100519.66;;;11.46;95.90
63194;BME280;49289;51.670;5.624;2023-12-22T07:58:31;100544.97;;;11.86;95.14
63194;BME280;49289;51.670;5.624;2023-12-22T08:00:19;100528.57;;;11.80;92.91
63194;BME280;49289;51.670;5.624;2023-12-22T08:02:06;100531.58;;;11.97;94.82
63194;BME280;49289;51.670;5.624;2023-12-22T08:03:53;100509.81;;;11.23;95.16
63194;BME280;49289;51.670;5.624;2023-12-22T08:05:40;100543.94;;;11.87;95.20
63194;BME280;49289;51.670;5.624;2023-12-22T08:07:28;100552.37;;;11.59;94.85
63194;BME280;49289;51.670;5.624;2023-12-22T08:09:15;100532.02;;;11.49;95.57
63194;BME280;49289;51.670;5.624;2023-12-22T08:11:02;100523.56;;;11.60;94.46
63194;BME280;49289;51.670;5.624;2023-12-22T08:12:49;100518.52;;;11.89;93.16
63194;BME280;49289;51.670;5.624;2023-12-22T08:14:36;100540.98;;;11.38;94.57
63194;BME280;49289;51.670;5.624;2023-12-22T08:16:23;100546.73;;;11.80;95.39
63194;BME280;49289;51.670;5.624;2023-12-22T08:18:10;100524.84;;;11.66;93.39
63194;BME280;49289;51.670;5.624;2023-12-22T08:19:57;100524.87;;;11.81;93.83
63194;BME280;49289;51.670;5.624;2023-12-22T08:21:44;100525.32;;;11.91;93.39
63194;BME280;49289;51.670;5.624;2023-12-22T08:23:31;100558.50;;;11.48;94.60
63194;BME280;49289;51.670;5.624;2023-12-22T08:25:19;100530.39;;;11.62;94.98
63194;BME280;49289;51.670;5.624;2023-12-22T08:27:06;100547.74;;;11.90;94.42
63194;BME280;49289;51.670;5.624;2023-12-22T08:28:53;100547.22;;;12.30;92.36
63194;BME280;49289;51.670;5.624;2023-12-22T08:30:40;100530.62;;;11.55;94.26
63194;BME280;49289;51.670;5.624;2023-12-22T08:32:27;100522.20;;;11.71;94.21
63194;BME280;49289;51.670;5.624;2023-12-22T08:34:14;100548.10;;;11.77;95.49
63194;BME280;49289;51.670;5.624;2023-12-22T08:36:01;100509.72;;;11.54;95.76
63194;BME280;49289;51.670;5.624;2023-12-22T08:37:48;100515.91;;;11.49;95.63
63194;BME280;49289;51.670;5.624;2023-12-22T08:39:35;100528.34;;;12.09;94.06
63194;BME280;49289;51.670;5.624;2023-12-22T08:41:22;100513.95;;;11.96;94.82
63194;BME280;49289;51.670;5.624;2023-12-22T08:43:09;100540.61;;;11.63;95.94
63194;BME280;49289;51.670;5.624;2023-12-22T08:44:56;100509.30;;;11.48;100.00
63194;BME280;49289;51.670;5.624;2023-12-22T08:46:43;100521.94;;;11.42;100.00
63194;BME280;49289;51.670;5.624;2023-12-22T08:48:30;100523.75;;;11.94;100.00
63194;BME280;49289;51.670;5.624;2023-12-22T08:50:18;100494.44;;;11.33;100.00
63194;BME280;49289;51.670;5.624;2023-12-22T08:52:05;100508.05;;;11.33;100.00
63194;BME280;49289;51.670;5.624;2023-12-22T08:53:52;100516.81;;;11.87;100.00
63194;BME280;49289;51.670;5.624;2023-12-22T08:55:39;100499.86;;;11.72;100.00
63194;BME280;49289;51.670;5.624;2023-12-22T08:57:26;100518.65;;;11.35;100.00
63194;BME280;49289;51.670;5.624;2023-12-22T08:59:13;100492.66;;;11.70;100.00
63194;BME280;49289;51.670;5.624;2023-12-22T09:01:00;100519.93;;;11.49;100.00
63194;BME280;49289;51.670;5.624;2023-12-22T09:02:47;100521.38;;;11.89;100.00
63194;BME280;49289;51.670;5.624;2023-12-22T09:04:34;100503.86;;;11.30;100.00
63194;BME280;49289;51.670;5.624;2023-12-22T09:06:22;100527.67;;;11.62;100.00
63194;BME280;49289;51.670;5.624;2023-12-22T09:08:09;100543.08;;;12.04;100.00
63194;BME280;49289;51.670;5.624;2023-12-22T09:09:56;100505.41;;;11.80;100.00
63194;BME280;49289;51.670;5.624;2023-12-22T09:11:43;100514.59;;;12.01;100.00
63194;BME280;49289;51.670;5.624;2023-12-22T09:13:30;100515.19;;;11.85;100.00
63194;BME280;49289;51.670;5.624;2023-12-22T09:15:17;100511.52;;;11.74;100.00
63194;BME280;49289;51.670;5.624;2023-12-22T09:17:04;100516.34;;;11.85;100.00
63194;BME280;49289;51.670;5.624;2023-12-22T09:18:51;100513.23;;;11.65;100.00